createdAt,value
2016-10-11T00:00:46.550Z,0
2016-10-11T00:01:46.544Z,0
2016-10-11T00:02:46.529Z,0
2016-10-11T00:03:46.522Z,0
2016-10-11T00:04:46.509Z,0
2016-10-11T00:05:46.488Z,0
2016-10-11T00:06:46.485Z,0
2016-10-11T00:07:46.463Z,0
2016-10-11T00:08:46.460Z,0
2016-10-11T00:09:46.442Z,0
2016-10-11T00:10:46.456Z,0
2016-10-11T00:11:46.418Z,0
2016-10-11T00:12:46.533Z,0
2016-10-11T00:13:46.414Z,0
2016-10-11T00:14:46.386Z,0
2016-10-11T00:15:46.373Z,0
2016-10-11T00:16:46.355Z,0
2016-10-11T00:17:46.357Z,0
2016-10-11T00:18:46.332Z,0
2016-10-11T00:19:46.324Z,0
2016-10-11T00:20:46.311Z,0
2016-10-11T00:21:46.296Z,0
2016-10-11T00:22:46.291Z,0
2016-10-11T00:23:46.265Z,0
2016-10-11T00:24:46.259Z,0
2016-10-11T00:25:46.253Z,0
2016-10-11T00:26:46.233Z,0
2016-10-11T00:27:46.227Z,0
2016-10-11T00:28:46.214Z,0
2016-10-11T00:29:46.192Z,0
2016-10-11T00:30:46.205Z,0
2016-10-11T00:31:46.178Z,0
2016-10-11T00:32:46.160Z,0
2016-10-11T00:33:46.163Z,0
2016-10-11T00:34:46.144Z,0
2016-10-11T00:35:46.128Z,0
2016-10-11T00:36:46.115Z,0
2016-10-11T00:37:46.095Z,0
2016-10-11T00:38:46.096Z,0
2016-10-11T00:39:46.064Z,0
2016-10-11T00:40:46.056Z,0
2016-10-11T00:41:46.056Z,0
2016-10-11T00:42:46.043Z,0
2016-10-11T00:43:46.030Z,0
2016-10-11T00:44:46.014Z,0
2016-10-11T00:45:46.000Z,0
2016-10-11T00:46:45.981Z,0
2016-10-11T00:47:45.975Z,0
2016-10-11T00:48:45.965Z,0
2016-10-11T00:49:45.956Z,0
2016-10-11T00:50:45.942Z,0
2016-10-11T00:51:45.929Z,0
2016-10-11T00:52:45.918Z,0
2016-10-11T00:53:45.907Z,0
2016-10-11T00:54:45.901Z,0
2016-10-11T00:55:45.878Z,0
2016-10-11T00:56:45.869Z,0
2016-10-11T00:57:45.852Z,0
2016-10-11T00:58:45.836Z,0
2016-10-11T00:59:45.840Z,0
2016-10-11T01:00:45.813Z,0
2016-10-11T01:01:45.852Z,0
2016-10-11T01:02:45.792Z,0
2016-10-11T01:03:45.791Z,0
2016-10-11T01:04:45.770Z,0
2016-10-11T01:05:45.750Z,0
2016-10-11T01:06:45.745Z,0
2016-10-11T01:07:45.722Z,0
2016-10-11T01:08:45.729Z,0
2016-10-11T01:09:45.705Z,0
2016-10-11T01:10:45.689Z,0
2016-10-11T01:11:45.671Z,0
2016-10-11T01:12:45.659Z,0
2016-10-11T01:13:45.661Z,0
2016-10-11T01:14:45.738Z,0
2016-10-11T01:15:45.637Z,0
2016-10-11T01:16:45.610Z,0
2016-10-11T01:17:45.607Z,0
2016-10-11T01:18:45.903Z,0
2016-10-11T01:19:45.897Z,0
2016-10-11T01:20:45.578Z,0
2016-10-11T01:21:45.609Z,0
2016-10-11T01:22:45.548Z,0
2016-10-11T01:23:45.529Z,0
2016-10-11T01:24:45.535Z,0
2016-10-11T01:25:45.511Z,0
2016-10-11T01:26:45.486Z,0
2016-10-11T01:27:45.485Z,0
2016-10-11T01:28:45.465Z,0
2016-10-11T01:29:45.463Z,0
2016-10-11T01:30:45.446Z,0
2016-10-11T01:31:45.426Z,0
2016-10-11T01:32:45.420Z,0
2016-10-11T01:33:45.405Z,0
2016-10-11T01:34:45.403Z,0
2016-10-11T01:35:45.382Z,0
2016-10-11T01:36:45.388Z,0
2016-10-11T01:37:45.358Z,0
2016-10-11T01:38:45.348Z,0
2016-10-11T01:39:45.357Z,0
2016-10-11T01:40:45.328Z,0
2016-10-11T01:41:45.306Z,0
2016-10-11T01:42:45.293Z,0
2016-10-11T01:43:45.281Z,0
2016-10-11T01:44:45.269Z,0
2016-10-11T01:45:45.260Z,0
2016-10-11T01:46:45.258Z,0
2016-10-11T01:47:45.229Z,0
2016-10-11T01:48:45.220Z,0
2016-10-11T01:49:45.208Z,0
2016-10-11T01:50:45.207Z,0
2016-10-11T01:51:45.190Z,0
2016-10-11T01:52:45.172Z,0
2016-10-11T01:53:45.168Z,0
2016-10-11T01:54:45.149Z,0
2016-10-11T01:55:45.138Z,0
2016-10-11T01:56:45.131Z,0
2016-10-11T01:57:45.122Z,0
2016-10-11T01:58:45.104Z,0
2016-10-11T01:59:45.092Z,0
2016-10-11T02:00:45.081Z,0
2016-10-11T02:01:45.069Z,0
2016-10-11T02:02:45.060Z,0
2016-10-11T02:03:45.031Z,0
2016-10-11T02:04:45.022Z,0
2016-10-11T02:05:45.008Z,0
2016-10-11T02:06:44.995Z,0
2016-10-11T02:07:44.993Z,0
2016-10-11T02:08:45.009Z,0
2016-10-11T02:09:45.012Z,0
2016-10-11T02:10:45.014Z,0
2016-10-11T02:11:44.954Z,0
2016-10-11T02:12:44.926Z,0
2016-10-11T02:13:44.934Z,0
2016-10-11T02:14:44.941Z,0
2016-10-11T02:15:44.951Z,0
2016-10-11T02:16:44.961Z,0
2016-10-11T02:17:44.965Z,0
2016-10-11T02:18:44.904Z,0
2016-10-11T02:19:44.917Z,0
2016-10-11T02:20:44.920Z,0
2016-10-11T02:21:44.935Z,0
2016-10-11T02:22:44.943Z,0
2016-10-11T02:23:44.960Z,0
2016-10-11T02:24:44.962Z,0
2016-10-11T02:25:44.854Z,0
2016-10-11T02:26:44.861Z,0
2016-10-11T02:27:44.874Z,0
2016-10-11T02:28:44.884Z,0
2016-10-11T02:29:44.884Z,0
2016-10-11T02:30:45.215Z,0
2016-10-11T02:31:44.829Z,0
2016-10-11T02:32:44.829Z,0
2016-10-11T02:33:44.821Z,0
2016-10-11T02:34:44.823Z,0
2016-10-11T02:35:44.852Z,0
2016-10-11T02:36:44.862Z,0
2016-10-11T02:37:45.107Z,0
2016-10-11T02:38:44.770Z,0
2016-10-11T02:39:44.779Z,0
2016-10-11T02:40:44.788Z,0
2016-10-11T02:41:44.802Z,0
2016-10-11T02:42:44.886Z,0
2016-10-11T02:43:44.806Z,0
2016-10-11T02:44:44.674Z,0
2016-10-11T02:45:44.979Z,0
2016-10-11T02:46:44.654Z,0
2016-10-11T02:47:44.779Z,0
2016-10-11T02:48:44.762Z,0
2016-10-11T02:49:44.668Z,0
2016-10-11T02:50:44.623Z,0
2016-10-11T02:51:44.632Z,0
2016-10-11T02:52:44.627Z,0
2016-10-11T02:53:44.623Z,0
2016-10-11T02:54:44.928Z,0
2016-10-11T02:55:44.463Z,0
2016-10-11T02:56:44.455Z,0
2016-10-11T02:57:44.476Z,0
2016-10-11T02:58:44.458Z,0
2016-10-11T02:59:44.455Z,0
2016-10-11T03:00:44.378Z,0
2016-10-11T03:01:44.311Z,0
2016-10-11T03:02:44.300Z,0
2016-10-11T03:03:44.292Z,0
2016-10-11T03:04:44.292Z,0
2016-10-11T03:05:44.267Z,0
2016-10-11T03:06:44.242Z,0
2016-10-11T03:07:44.239Z,0
2016-10-11T03:08:44.219Z,0
2016-10-11T03:09:44.216Z,0
2016-10-11T03:10:44.191Z,0
2016-10-11T03:11:44.185Z,0
2016-10-11T03:12:44.217Z,0
2016-10-11T03:13:44.158Z,0
2016-10-11T03:14:44.147Z,0
2016-10-11T03:15:44.153Z,0
2016-10-11T03:16:44.118Z,0
2016-10-11T03:17:44.107Z,0
2016-10-11T03:18:44.091Z,0
2016-10-11T03:19:44.078Z,0
2016-10-11T03:20:44.081Z,0
2016-10-11T03:21:44.052Z,0
2016-10-11T03:22:44.039Z,0
2016-10-11T03:23:44.030Z,0
2016-10-11T03:24:44.016Z,0
2016-10-11T03:25:44.016Z,0
2016-10-11T03:26:44.002Z,0
2016-10-11T03:27:43.983Z,0
2016-10-11T03:28:43.984Z,0
2016-10-11T03:29:43.962Z,0
2016-10-11T03:30:43.950Z,0
2016-10-11T03:31:43.926Z,0
2016-10-11T03:32:43.919Z,0
2016-10-11T03:33:43.906Z,0
2016-10-11T03:34:43.890Z,0
2016-10-11T03:35:43.885Z,0
2016-10-11T03:36:43.875Z,0
2016-10-11T03:37:44.171Z,0
2016-10-11T03:38:43.903Z,0
2016-10-11T03:39:43.821Z,0
2016-10-11T03:40:43.820Z,0
2016-10-11T03:41:43.807Z,0
2016-10-11T03:42:43.794Z,0
2016-10-11T03:43:44.098Z,0
2016-10-11T03:44:43.774Z,0
2016-10-11T03:45:44.068Z,0
2016-10-11T03:46:43.751Z,0
2016-10-11T03:47:43.724Z,0
2016-10-11T03:48:43.716Z,0
2016-10-11T03:49:43.725Z,0
2016-10-11T03:50:43.689Z,0
2016-10-11T03:51:43.694Z,0
2016-10-11T03:52:43.664Z,0
2016-10-11T03:53:43.658Z,0
2016-10-11T03:54:43.670Z,0
2016-10-11T03:55:43.617Z,0
2016-10-11T03:56:43.934Z,0
2016-10-11T03:57:43.599Z,0
2016-10-11T03:58:43.585Z,0
2016-10-11T03:59:43.892Z,0
2016-10-11T04:00:43.596Z,0
2016-10-11T04:01:43.558Z,0
2016-10-11T04:02:43.591Z,0
2016-10-11T04:03:43.840Z,0
2016-10-11T04:04:43.510Z,0
2016-10-11T04:05:43.513Z,0
2016-10-11T04:06:43.798Z,0
2016-10-11T04:07:43.492Z,0
2016-10-11T04:08:43.510Z,0
2016-10-11T04:09:43.453Z,0
2016-10-11T04:10:43.755Z,0
2016-10-11T04:11:43.421Z,0
2016-10-11T04:12:43.427Z,0
2016-10-11T04:13:43.399Z,0
2016-10-11T04:14:43.392Z,0
2016-10-11T04:15:43.379Z,0
2016-10-11T04:16:43.362Z,0
2016-10-11T04:17:43.366Z,0
2016-10-11T04:18:43.340Z,0
2016-10-11T04:19:43.325Z,0
2016-10-11T04:20:43.617Z,0
2016-10-11T04:21:43.621Z,0
2016-10-11T04:22:43.293Z,0
2016-10-11T04:23:43.285Z,0
2016-10-11T04:24:43.274Z,0
2016-10-11T04:25:43.237Z,0
2016-10-11T04:26:43.240Z,0
2016-10-11T04:27:43.225Z,0
2016-10-11T04:28:43.265Z,0
2016-10-11T04:29:43.195Z,0
2016-10-11T04:30:43.189Z,0
2016-10-11T04:31:43.170Z,0
2016-10-11T04:32:43.162Z,0
2016-10-11T04:33:43.162Z,0
2016-10-11T04:34:43.133Z,0
2016-10-11T04:35:43.438Z,0
2016-10-11T04:36:43.104Z,0
2016-10-11T04:37:43.098Z,0
2016-10-11T04:38:43.082Z,0
2016-10-11T04:39:43.392Z,0
2016-10-11T04:40:43.056Z,0
2016-10-11T04:41:43.054Z,0
2016-10-11T04:42:43.035Z,0
2016-10-11T04:43:43.035Z,0
2016-10-11T04:44:43.325Z,0
2016-10-11T04:45:42.997Z,0
2016-10-11T04:46:42.986Z,0
2016-10-11T04:47:42.972Z,0
2016-10-11T04:48:43.275Z,0
2016-10-11T04:49:42.943Z,0
2016-10-11T04:50:42.932Z,0
2016-10-11T04:51:42.918Z,0
2016-10-11T04:52:42.903Z,0
2016-10-11T04:53:42.898Z,0
2016-10-11T04:54:42.881Z,0
2016-10-11T04:55:42.863Z,0
2016-10-11T04:56:42.856Z,0
2016-10-11T04:57:42.843Z,0
2016-10-11T04:58:42.851Z,0
2016-10-11T04:59:43.137Z,0
2016-10-11T05:00:42.805Z,0
2016-10-11T05:01:42.784Z,0
2016-10-11T05:02:42.784Z,0
2016-10-11T05:03:42.771Z,0
2016-10-11T05:04:42.760Z,0
2016-10-11T05:05:42.753Z,4
2016-10-11T05:06:42.726Z,0
2016-10-11T05:07:42.710Z,0
2016-10-11T05:08:42.709Z,0
2016-10-11T05:09:42.694Z,4
2016-10-11T05:10:42.694Z,0
2016-10-11T05:11:42.662Z,4
2016-10-11T05:12:42.970Z,4
2016-10-11T05:13:42.648Z,8
2016-10-11T05:14:42.643Z,8
2016-10-11T05:15:42.652Z,12
2016-10-11T05:16:42.664Z,12
2016-10-11T05:17:42.669Z,20
2016-10-11T05:18:42.669Z,24
2016-10-11T05:19:42.679Z,24
2016-10-11T05:20:42.621Z,36
2016-10-11T05:21:42.660Z,40
2016-10-11T05:22:42.594Z,40
2016-10-11T05:23:42.604Z,40
2016-10-11T05:24:42.615Z,48
2016-10-11T05:25:42.563Z,60
2016-10-11T05:26:42.559Z,64
2016-10-11T05:27:42.567Z,68
2016-10-11T05:28:42.577Z,72
2016-10-11T05:29:42.592Z,76
2016-10-11T05:30:42.594Z,80
2016-10-11T05:31:42.595Z,96
2016-10-11T05:32:42.602Z,96
2016-10-11T05:33:42.541Z,104
2016-10-11T05:34:42.547Z,112
2016-10-11T05:35:42.526Z,128
2016-10-11T05:36:42.529Z,140
2016-10-11T05:37:42.507Z,136
2016-10-11T05:38:42.476Z,112
2016-10-11T05:39:42.550Z,128
2016-10-11T05:40:42.489Z,132
2016-10-11T05:41:42.497Z,132
2016-10-11T05:42:42.502Z,132
2016-10-11T05:43:42.509Z,124
2016-10-11T05:44:42.591Z,124
2016-10-11T05:45:42.846Z,136
2016-10-11T05:46:42.531Z,136
2016-10-11T05:47:42.444Z,136
2016-10-11T05:48:42.443Z,160
2016-10-11T05:49:42.451Z,180
2016-10-11T05:50:42.455Z,236
2016-10-11T05:51:42.323Z,300
2016-10-11T05:52:42.301Z,276
2016-10-11T05:53:42.302Z,256
2016-10-11T05:54:42.430Z,300
2016-10-11T05:55:42.285Z,360
2016-10-11T05:56:42.305Z,448
2016-10-11T05:57:42.302Z,524
2016-10-11T05:58:42.299Z,612
2016-10-11T05:59:42.293Z,688
2016-10-11T06:00:42.282Z,752
2016-10-11T06:01:42.125Z,732
2016-10-11T06:02:42.123Z,784
2016-10-11T06:03:42.120Z,720
2016-10-11T06:04:42.165Z,716
2016-10-11T06:05:42.114Z,896
2016-10-11T06:06:41.982Z,936
2016-10-11T06:07:41.984Z,912
2016-10-11T06:08:41.948Z,900
2016-10-11T06:09:41.958Z,864
2016-10-11T06:10:41.930Z,880
2016-10-11T06:11:41.925Z,1156
2016-10-11T06:12:41.893Z,1428
2016-10-11T06:13:41.913Z,1556
2016-10-11T06:14:41.874Z,1612
2016-10-11T06:15:41.913Z,1584
2016-10-11T06:16:41.856Z,1572
2016-10-11T06:17:41.864Z,1564
2016-10-11T06:18:41.826Z,1656
2016-10-11T06:19:41.834Z,1596
2016-10-11T06:20:41.817Z,1608
2016-10-11T06:21:41.789Z,1756
2016-10-11T06:22:41.770Z,1756
2016-10-11T06:23:41.803Z,1764
2016-10-11T06:24:41.761Z,1824
2016-10-11T06:25:41.734Z,1964
2016-10-11T06:26:41.723Z,2036
2016-10-11T06:27:41.729Z,2028
2016-10-11T06:28:41.705Z,2008
2016-10-11T06:29:41.696Z,1956
2016-10-11T06:30:42.180Z,1948
2016-10-11T06:31:41.678Z,2032
2016-10-11T06:32:41.659Z,2036
2016-10-11T06:33:41.669Z,1988
2016-10-11T06:34:41.627Z,1940
2016-10-11T06:35:41.617Z,1852
2016-10-11T06:36:41.603Z,1736
2016-10-11T06:37:41.602Z,1676
2016-10-11T06:38:41.584Z,1584
2016-10-11T06:39:41.565Z,1588
2016-10-11T06:40:41.565Z,1564
2016-10-11T06:41:41.564Z,1516
2016-10-11T06:42:41.533Z,1428
2016-10-11T06:43:41.515Z,1428
2016-10-11T06:44:41.506Z,1476
2016-10-11T06:45:41.502Z,1472
2016-10-11T06:46:41.485Z,1512
2016-10-11T06:47:41.478Z,1588
2016-10-11T06:48:41.471Z,1620
2016-10-11T06:49:41.476Z,1728
2016-10-11T06:50:41.434Z,1880
2016-10-11T06:51:41.469Z,2028
2016-10-11T06:52:41.411Z,2344
2016-10-11T06:53:41.402Z,2920
2016-10-11T06:54:41.385Z,3396
2016-10-11T06:55:41.374Z,3892
2016-10-11T06:56:41.367Z,4384
2016-10-11T06:57:41.345Z,4868
2016-10-11T06:58:41.339Z,5064
2016-10-11T06:59:41.324Z,5112
2016-10-11T07:00:41.308Z,5236
2016-10-11T07:01:41.304Z,5056
2016-10-11T07:02:41.284Z,5004
2016-10-11T07:03:41.278Z,4860
2016-10-11T07:04:41.273Z,4876
2016-10-11T07:05:41.265Z,4652
2016-10-11T07:06:41.241Z,4648
2016-10-11T07:07:41.228Z,4684
2016-10-11T07:08:41.212Z,4464
2016-10-11T07:09:41.218Z,4324
2016-10-11T07:10:41.383Z,4092
2016-10-11T07:11:41.177Z,3828
2016-10-11T07:12:41.181Z,3488
2016-10-11T07:13:41.152Z,3148
2016-10-11T07:14:41.159Z,2892
2016-10-11T07:15:41.135Z,2860
2016-10-11T07:16:41.137Z,2960
2016-10-11T07:17:41.391Z,3132
2016-10-11T07:18:41.092Z,2984
2016-10-11T07:19:41.081Z,2600
2016-10-11T07:20:41.080Z,2964
2016-10-11T07:21:41.052Z,3404
2016-10-11T07:22:41.049Z,3456
2016-10-11T07:23:41.059Z,3756
2016-10-11T07:24:41.337Z,4440
2016-10-11T07:25:41.378Z,4340
2016-10-11T07:26:41.025Z,4064
2016-10-11T07:27:41.195Z,3348
2016-10-11T07:28:40.975Z,3144
2016-10-11T07:29:40.973Z,2788
2016-10-11T07:30:41.046Z,2648
2016-10-11T07:31:41.033Z,2896
2016-10-11T07:32:41.042Z,3252
2016-10-11T07:33:41.073Z,3748
2016-10-11T07:34:40.911Z,4024
2016-10-11T07:35:40.890Z,3600
2016-10-11T07:36:40.961Z,3348
2016-10-11T07:37:41.031Z,3412
2016-10-11T07:38:41.479Z,3788
2016-10-11T07:39:40.843Z,3892
2016-10-11T07:40:40.864Z,4336
2016-10-11T07:41:40.825Z,4340
2016-10-11T07:42:40.821Z,4612
2016-10-11T07:43:40.800Z,4260
2016-10-11T07:44:40.795Z,4128
2016-10-11T07:45:40.796Z,4556
2016-10-11T07:46:40.763Z,5072
2016-10-11T07:47:40.766Z,5284
2016-10-11T07:48:40.743Z,5204
2016-10-11T07:49:40.737Z,5144
2016-10-11T07:50:40.716Z,5304
2016-10-11T07:51:40.739Z,5332
2016-10-11T07:52:40.698Z,5388
2016-10-11T07:53:40.702Z,5528
2016-10-11T07:54:40.689Z,5540
2016-10-11T07:55:40.670Z,5768
2016-10-11T07:56:40.685Z,6004
2016-10-11T07:57:40.633Z,6276
2016-10-11T07:58:41.468Z,7288
2016-10-11T07:59:40.607Z,7816
2016-10-11T08:00:40.617Z,7132
2016-10-11T08:01:40.589Z,6524
2016-10-11T08:02:40.592Z,7004
2016-10-11T08:03:40.573Z,7232
2016-10-11T08:04:40.557Z,6900
2016-10-11T08:05:40.547Z,7092
2016-10-11T08:06:40.543Z,6868
2016-10-11T08:07:40.532Z,6820
2016-10-11T08:08:40.522Z,6528
2016-10-11T08:09:40.509Z,6132
2016-10-11T08:10:40.512Z,5512
2016-10-11T08:11:40.477Z,5476
2016-10-11T08:12:40.468Z,5704
2016-10-11T08:13:40.500Z,6112
2016-10-11T08:14:40.448Z,6180
2016-10-11T08:15:40.454Z,6776
2016-10-11T08:16:40.488Z,7200
2016-10-11T08:17:40.418Z,8436
2016-10-11T08:18:40.425Z,8136
2016-10-11T08:19:40.399Z,8344
2016-10-11T08:20:40.416Z,9860
2016-10-11T08:21:40.381Z,11268
2016-10-11T08:22:40.354Z,11244
2016-10-11T08:23:40.346Z,12100
2016-10-11T08:24:40.343Z,12012
2016-10-11T08:25:40.336Z,12552
2016-10-11T08:26:40.328Z,12488
2016-10-11T08:27:40.302Z,11340
2016-10-11T08:28:40.296Z,9820
2016-10-11T08:29:40.276Z,8148
2016-10-11T08:30:40.268Z,5628
2016-10-11T08:31:40.259Z,4732
2016-10-11T08:32:40.250Z,4612
2016-10-11T08:33:40.234Z,4424
2016-10-11T08:34:40.235Z,4160
2016-10-11T08:35:40.213Z,3652
2016-10-11T08:36:40.253Z,3372
2016-10-11T08:37:40.211Z,3208
2016-10-11T08:38:40.201Z,3112
2016-10-11T08:39:40.187Z,3152
2016-10-11T08:40:40.490Z,3180
2016-10-11T08:41:40.177Z,3352
2016-10-11T08:42:40.154Z,3420
2016-10-11T08:43:40.164Z,3488
2016-10-11T08:44:40.131Z,3856
2016-10-11T08:45:40.114Z,4240
2016-10-11T08:46:40.432Z,4296
2016-10-11T08:47:40.093Z,4536
2016-10-11T08:48:40.131Z,4788
2016-10-11T08:49:40.079Z,4568
2016-10-11T08:50:40.057Z,4012
2016-10-11T08:51:40.050Z,3328
2016-10-11T08:52:40.358Z,3264
2016-10-11T08:53:40.055Z,3004
2016-10-11T08:54:40.015Z,2936
2016-10-11T08:55:40.019Z,3008
2016-10-11T08:56:40.007Z,3156
2016-10-11T08:57:40.008Z,3272
2016-10-11T08:58:40.010Z,3360
2016-10-11T08:59:39.960Z,3464
2016-10-11T09:00:39.962Z,3620
2016-10-11T09:01:40.153Z,3796
2016-10-11T09:02:39.966Z,3976
2016-10-11T09:03:39.918Z,4292
2016-10-11T09:04:39.930Z,4892
2016-10-11T09:05:39.897Z,5592
2016-10-11T09:06:39.901Z,6204
2016-10-11T09:07:40.216Z,6752
2016-10-11T09:08:39.864Z,7204
2016-10-11T09:09:39.865Z,7472
2016-10-11T09:10:39.853Z,7504
2016-10-11T09:11:39.849Z,7396
2016-10-11T09:12:39.874Z,7572
2016-10-11T09:13:39.815Z,7936
2016-10-11T09:14:39.805Z,8404
2016-10-11T09:15:39.867Z,8852
2016-10-11T09:16:39.772Z,9036
2016-10-11T09:17:39.775Z,8904
2016-10-11T09:18:39.755Z,8776
2016-10-11T09:19:39.772Z,8544
2016-10-11T09:20:39.738Z,8340
2016-10-11T09:21:39.750Z,8192
2016-10-11T09:22:39.722Z,8292
2016-10-11T09:23:39.715Z,8152
2016-10-11T09:24:39.692Z,8164
2016-10-11T09:25:39.700Z,8416
2016-10-11T09:26:39.683Z,8480
2016-10-11T09:27:39.658Z,7464
2016-10-11T09:28:39.654Z,6844
2016-10-11T09:29:39.654Z,6532
2016-10-11T09:30:39.643Z,6516
2016-10-11T09:31:39.946Z,7144
2016-10-11T09:32:39.631Z,7848
2016-10-11T09:33:39.611Z,8736
2016-10-11T09:34:39.587Z,9264
2016-10-11T09:35:39.595Z,10268
2016-10-11T09:36:39.676Z,10420
2016-10-11T09:37:39.609Z,10964
2016-10-11T09:38:39.558Z,11416
2016-10-11T09:39:39.566Z,10440
2016-10-11T09:40:39.534Z,9136
2016-10-11T09:41:39.535Z,8444
2016-10-11T09:42:39.505Z,7732
2016-10-11T09:43:39.509Z,7164
2016-10-11T09:44:39.502Z,6156
2016-10-11T09:45:39.506Z,6032
2016-10-11T09:46:39.476Z,5552
2016-10-11T09:47:39.470Z,5404
2016-10-11T09:48:39.454Z,5776
2016-10-11T09:49:39.454Z,6716
2016-10-11T09:50:39.421Z,7268
2016-10-11T09:51:39.414Z,7912
2016-10-11T09:52:39.428Z,7676
2016-10-11T09:53:39.414Z,8604
2016-10-11T09:54:39.387Z,9504
2016-10-11T09:55:39.374Z,9276
2016-10-11T09:56:39.363Z,9984
2016-10-11T09:57:39.414Z,10136
2016-10-11T09:58:39.354Z,9200
2016-10-11T09:59:39.355Z,8376
2016-10-11T10:00:39.326Z,8340
2016-10-11T10:01:39.320Z,8392
2016-10-11T10:02:39.304Z,8204
2016-10-11T10:03:39.308Z,7696
2016-10-11T10:04:39.293Z,7144
2016-10-11T10:05:39.290Z,6804
2016-10-11T10:06:39.263Z,6292
2016-10-11T10:07:39.265Z,6156
2016-10-11T10:08:39.247Z,6380
2016-10-11T10:09:39.246Z,6584
2016-10-11T10:10:39.235Z,6528
2016-10-11T10:11:39.237Z,6576
2016-10-11T10:12:39.248Z,6768
2016-10-11T10:13:39.251Z,6856
2016-10-11T10:14:39.267Z,6888
2016-10-11T10:15:39.496Z,7052
2016-10-11T10:16:39.183Z,7472
2016-10-11T10:17:39.228Z,8420
2016-10-11T10:18:39.188Z,8852
2016-10-11T10:19:39.197Z,9036
2016-10-11T10:20:39.257Z,9176
2016-10-11T10:21:39.204Z,8900
2016-10-11T10:22:39.211Z,8928
2016-10-11T10:23:39.162Z,9288
2016-10-11T10:24:39.171Z,9516
2016-10-11T10:25:39.173Z,9708
2016-10-11T10:26:39.179Z,9944
2016-10-11T10:27:39.211Z,9896
2016-10-11T10:28:39.096Z,9748
2016-10-11T10:29:39.096Z,9312
2016-10-11T10:30:39.104Z,9096
2016-10-11T10:31:39.121Z,8940
2016-10-11T10:32:39.124Z,8524
2016-10-11T10:33:39.131Z,7976
2016-10-11T10:34:39.140Z,7740
2016-10-11T10:35:39.142Z,7416
2016-10-11T10:36:39.153Z,6928
2016-10-11T10:37:39.159Z,6768
2016-10-11T10:38:39.030Z,6672
2016-10-11T10:39:39.038Z,6328
2016-10-11T10:40:39.037Z,5872
2016-10-11T10:41:39.092Z,5664
2016-10-11T10:42:39.095Z,5228
2016-10-11T10:43:39.104Z,4856
2016-10-11T10:44:38.963Z,4452
2016-10-11T10:45:38.974Z,3924
2016-10-11T10:46:38.984Z,3560
2016-10-11T10:47:38.992Z,3620
2016-10-11T10:48:40.257Z,3932
2016-10-11T10:49:39.001Z,4392
2016-10-11T10:50:39.013Z,5060
2016-10-11T10:51:39.168Z,5648
2016-10-11T10:52:39.025Z,6232
2016-10-11T10:53:39.036Z,6796
2016-10-11T10:54:39.134Z,7280
2016-10-11T10:55:38.944Z,7656
2016-10-11T10:56:38.952Z,8240
2016-10-11T10:57:38.961Z,8376
2016-10-11T10:58:38.959Z,8260
2016-10-11T10:59:38.971Z,8296
2016-10-11T11:00:38.977Z,8680
2016-10-11T11:01:38.784Z,8952
2016-10-11T11:02:38.776Z,8740
2016-10-11T11:03:38.903Z,8080
2016-10-11T11:04:38.814Z,7392
2016-10-11T11:05:38.787Z,6808
2016-10-11T11:06:38.764Z,6720
2016-10-11T11:07:38.769Z,6956
2016-10-11T11:08:38.768Z,7680
2016-10-11T11:09:38.740Z,8052
2016-10-11T11:10:38.737Z,8156
2016-10-11T11:11:38.725Z,8144
2016-10-11T11:12:38.735Z,8200
2016-10-11T11:13:38.725Z,8316
2016-10-11T11:14:38.600Z,8460
2016-10-11T11:15:38.726Z,8740
2016-10-11T11:16:38.571Z,9240
2016-10-11T11:17:38.569Z,9500
2016-10-11T11:18:38.556Z,9832
2016-10-11T11:19:38.549Z,9928
2016-10-11T11:20:38.549Z,10152
2016-10-11T11:21:38.528Z,10524
2016-10-11T11:22:38.514Z,10824
2016-10-11T11:23:38.493Z,10724
2016-10-11T11:24:38.502Z,10396
2016-10-11T11:25:38.488Z,10796
2016-10-11T11:26:38.479Z,10884
2016-10-11T11:27:38.468Z,10428
2016-10-11T11:28:38.458Z,9960
2016-10-11T11:29:38.459Z,9932
2016-10-11T11:30:38.434Z,9856
2016-10-11T11:31:38.433Z,9388
2016-10-11T11:32:38.411Z,8840
2016-10-11T11:33:38.408Z,8084
2016-10-11T11:34:38.395Z,7164
2016-10-11T11:35:38.766Z,7228
2016-10-11T11:36:38.384Z,6324
2016-10-11T11:37:38.365Z,5588
2016-10-11T11:38:38.351Z,5716
2016-10-11T11:39:38.346Z,6064
2016-10-11T11:40:38.335Z,5484
2016-10-11T11:41:38.343Z,4236
2016-10-11T11:42:38.323Z,3592
2016-10-11T11:43:38.381Z,3548
2016-10-11T11:44:38.304Z,3872
2016-10-11T11:45:38.292Z,4472
2016-10-11T11:46:38.285Z,4636
2016-10-11T11:47:38.283Z,4376
2016-10-11T11:48:38.698Z,4404
2016-10-11T11:49:38.261Z,4140
2016-10-11T11:50:38.260Z,4060
2016-10-11T11:51:38.233Z,3920
2016-10-11T11:52:38.219Z,3296
2016-10-11T11:53:38.272Z,2852
2016-10-11T11:54:38.204Z,2304
2016-10-11T11:55:38.197Z,1808
2016-10-11T11:56:38.183Z,1572
2016-10-11T11:57:38.170Z,1268
2016-10-11T11:58:38.159Z,996
2016-10-11T11:59:38.161Z,1020
2016-10-11T12:00:38.140Z,1160
2016-10-11T12:01:38.137Z,1212
2016-10-11T12:02:38.116Z,1496
2016-10-11T12:03:38.099Z,1720
2016-10-11T12:04:38.098Z,2048
2016-10-11T12:05:38.106Z,2220
2016-10-11T12:06:38.073Z,2248
2016-10-11T12:07:38.067Z,2372
2016-10-11T12:08:38.055Z,2576
2016-10-11T12:09:38.363Z,2612
2016-10-11T12:10:38.030Z,2624
2016-10-11T12:11:38.054Z,2780
2016-10-11T12:12:38.008Z,3064
2016-10-11T12:13:37.994Z,3344
2016-10-11T12:14:37.988Z,3512
2016-10-11T12:15:37.974Z,3580
2016-10-11T12:16:37.974Z,3628
2016-10-11T12:17:37.978Z,3656
2016-10-11T12:18:37.936Z,3636
2016-10-11T12:19:37.936Z,3604
2016-10-11T12:20:37.915Z,3540
2016-10-11T12:21:37.907Z,3392
2016-10-11T12:22:37.893Z,3204
2016-10-11T12:23:37.882Z,3012
2016-10-11T12:24:37.871Z,2812
2016-10-11T12:25:37.856Z,2668
2016-10-11T12:26:37.839Z,2600
2016-10-11T12:27:37.827Z,2476
2016-10-11T12:28:37.815Z,2356
2016-10-11T12:29:37.810Z,2264
2016-10-11T12:30:37.797Z,2212
2016-10-11T12:31:37.785Z,2268
2016-10-11T12:32:37.782Z,2456
2016-10-11T12:33:37.758Z,2784
2016-10-11T12:34:37.739Z,3164
2016-10-11T12:35:37.747Z,3480
2016-10-11T12:36:37.721Z,3680
2016-10-11T12:37:37.712Z,3784
2016-10-11T12:38:37.687Z,3864
2016-10-11T12:39:37.692Z,3936
2016-10-11T12:40:37.669Z,3788
2016-10-11T12:41:37.657Z,3616
2016-10-11T12:42:37.647Z,3648
2016-10-11T12:43:37.632Z,4160
2016-10-11T12:44:37.619Z,4480
2016-10-11T12:45:37.610Z,4420
2016-10-11T12:46:37.608Z,4108
2016-10-11T12:47:37.593Z,3868
2016-10-11T12:48:37.584Z,4908
2016-10-11T12:49:37.571Z,5304
2016-10-11T12:50:37.544Z,5540
2016-10-11T12:51:37.545Z,5696
2016-10-11T12:52:37.521Z,5852
2016-10-11T12:53:37.531Z,5948
2016-10-11T12:54:37.500Z,5620
2016-10-11T12:55:37.496Z,4616
2016-10-11T12:56:37.486Z,3896
2016-10-11T12:57:37.482Z,5000
2016-10-11T12:58:37.456Z,6464
2016-10-11T12:59:37.457Z,6376
2016-10-11T13:00:37.429Z,5764
2016-10-11T13:01:37.415Z,5152
2016-10-11T13:02:37.401Z,5056
2016-10-11T13:03:37.395Z,5672
2016-10-11T13:04:37.372Z,5180
2016-10-11T13:05:37.372Z,4304
2016-10-11T13:06:37.462Z,5456
2016-10-11T13:07:37.364Z,5200
2016-10-11T13:08:37.660Z,5000
2016-10-11T13:09:37.353Z,4908
2016-10-11T13:10:37.315Z,5832
2016-10-11T13:11:37.303Z,5532
2016-10-11T13:12:37.292Z,4476
2016-10-11T13:13:37.287Z,4492
2016-10-11T13:14:37.261Z,4920
2016-10-11T13:15:37.256Z,4488
2016-10-11T13:16:37.240Z,4676
2016-10-11T13:17:37.243Z,4240
2016-10-11T13:18:37.222Z,3512
2016-10-11T13:19:37.206Z,3668
2016-10-11T13:20:37.197Z,3744
2016-10-11T13:21:37.184Z,3728
2016-10-11T13:22:37.173Z,3572
2016-10-11T13:23:37.165Z,4192
2016-10-11T13:24:37.155Z,4360
2016-10-11T13:25:37.137Z,4404
2016-10-11T13:26:37.135Z,4592
2016-10-11T13:27:37.119Z,4224
2016-10-11T13:28:37.094Z,3940
2016-10-11T13:29:37.094Z,3432
2016-10-11T13:30:37.076Z,3200
2016-10-11T13:31:37.074Z,3284
2016-10-11T13:32:37.061Z,3224
2016-10-11T13:33:37.051Z,3092
2016-10-11T13:34:37.032Z,3176
2016-10-11T13:35:37.039Z,3244
2016-10-11T13:36:37.008Z,3492
2016-10-11T13:37:36.997Z,3920
2016-10-11T13:38:36.977Z,4140
2016-10-11T13:39:36.968Z,3960
2016-10-11T13:40:36.963Z,3636
2016-10-11T13:41:36.956Z,3368
2016-10-11T13:42:36.942Z,3168
2016-10-11T13:43:36.928Z,2888
2016-10-11T13:44:36.921Z,2524
2016-10-11T13:45:36.924Z,2164
2016-10-11T13:46:36.894Z,2396
2016-10-11T13:47:36.874Z,2600
2016-10-11T13:48:36.862Z,2624
2016-10-11T13:49:36.860Z,2680
2016-10-11T13:50:36.850Z,2776
2016-10-11T13:51:36.839Z,2880